createdAt,value
2022-10-26T00:00:00.841Z,10.11
2022-10-26T00:02:27.513Z,10.01
2022-10-26T00:04:54.009Z,9.64
2022-10-26T00:07:20.446Z,9.83
2022-10-26T00:09:46.858Z,9.97
2022-10-26T00:12:13.274Z,10.00
2022-10-26T00:14:39.685Z,10.11
2022-10-26T00:17:06.369Z,10.06
2022-10-26T00:19:33.338Z,10.03
2022-10-26T00:21:59.767Z,9.83
2022-10-26T00:24:26.226Z,9.76
2022-10-26T00:26:52.631Z,9.86
2022-10-26T00:29:19.110Z,9.95
2022-10-26T00:31:45.691Z,10.01
2022-10-26T00:34:12.216Z,9.95
2022-10-26T00:36:38.666Z,9.96
2022-10-26T00:39:05.254Z,9.85
2022-10-26T00:41:32.974Z,9.75
2022-10-26T00:43:59.767Z,9.77
2022-10-26T00:46:37.673Z,9.72
2022-10-26T00:49:06.317Z,9.78
2022-10-26T00:51:39.341Z,9.56
2022-10-26T00:54:07.476Z,9.58
2022-10-26T00:56:34.587Z,9.74
2022-10-26T00:59:06.396Z,9.69
2022-10-26T01:01:33.974Z,9.68
2022-10-26T01:04:00.546Z,9.95
2022-10-26T01:06:31.244Z,9.94
2022-10-26T01:08:57.787Z,9.65
2022-10-26T01:11:24.201Z,9.63
2022-10-26T01:13:53.022Z,9.44
2022-10-26T01:16:19.414Z,9.45
2022-10-26T01:18:59.491Z,9.46
2022-10-26T01:21:41.044Z,9.43
2022-10-26T01:24:08.261Z,9.41
2022-10-26T01:26:37.763Z,9.47
2022-10-26T01:29:07.319Z,9.44
2022-10-26T01:31:47.821Z,9.35
2022-10-26T01:34:20.957Z,9.39
2022-10-26T01:36:54.930Z,9.40
2022-10-26T01:39:27.183Z,9.18
2022-10-26T01:41:56.270Z,9.14
2022-10-26T01:44:29.533Z,9.06
2022-10-26T01:46:58.172Z,8.91
2022-10-26T01:49:29.593Z,9.00
2022-10-26T01:51:56.054Z,9.02
2022-10-26T01:54:22.494Z,9.18
2022-10-26T01:56:51.308Z,9.15
2022-10-26T01:59:32.890Z,9.11
2022-10-26T02:01:59.327Z,9.11
2022-10-26T02:04:37.981Z,9.34
2022-10-26T02:07:29.502Z,9.05
2022-10-26T02:09:58.946Z,8.84
2022-10-26T02:12:38.574Z,8.73
2022-10-26T02:15:17.534Z,8.85
2022-10-26T02:17:52.065Z,8.79
2022-10-26T02:20:22.402Z,8.96
2022-10-26T02:22:50.456Z,8.83
2022-10-26T02:25:22.549Z,8.84
2022-10-26T02:27:51.575Z,8.73
2022-10-26T02:30:18.682Z,8.53
2022-10-26T02:32:47.010Z,8.66
2022-10-26T02:35:14.483Z,8.52
2022-10-26T02:37:41.538Z,8.72
2022-10-26T02:40:11.546Z,8.49
2022-10-26T02:42:40.129Z,8.49
2022-10-26T02:45:10.167Z,8.43
2022-10-26T02:47:36.825Z,8.36
2022-10-26T02:50:03.718Z,8.30
2022-10-26T02:52:33.121Z,8.47
2022-10-26T02:55:04.155Z,8.54
2022-10-26T02:57:39.819Z,8.49
2022-10-26T03:00:07.499Z,8.62
2022-10-26T03:02:34.089Z,8.58
2022-10-26T03:05:18.013Z,8.49
2022-10-26T03:07:44.478Z,8.72
2022-10-26T03:10:11.041Z,8.52
2022-10-26T03:12:37.529Z,8.54
2022-10-26T03:15:04.777Z,8.51
2022-10-26T03:17:31.229Z,8.66
2022-10-26T03:19:57.653Z,8.68
2022-10-26T03:22:24.142Z,8.94
2022-10-26T03:24:50.616Z,8.79
2022-10-26T03:27:17.021Z,8.83
2022-10-26T03:29:43.446Z,8.87
2022-10-26T03:32:09.849Z,8.83
2022-10-26T03:34:36.311Z,8.80
2022-10-26T03:37:02.727Z,8.74
2022-10-26T03:39:29.209Z,8.73
2022-10-26T03:41:55.944Z,8.79
2022-10-26T03:44:22.766Z,8.74
2022-10-26T03:46:49.221Z,8.65
2022-10-26T03:49:15.660Z,8.72
2022-10-26T03:51:42.086Z,8.76
2022-10-26T03:54:08.603Z,8.87
2022-10-26T03:56:35.036Z,8.94
2022-10-26T03:59:01.465Z,8.94
2022-10-26T04:01:27.938Z,8.97
2022-10-26T04:03:54.402Z,9.05
2022-10-26T04:06:20.890Z,9.04
2022-10-26T04:08:47.325Z,9.02
2022-10-26T04:11:13.779Z,9.18
2022-10-26T04:13:40.278Z,8.94
2022-10-26T04:16:06.845Z,8.87
2022-10-26T04:18:33.320Z,9.01
2022-10-26T04:21:02.786Z,9.14
2022-10-26T04:23:29.284Z,9.18
2022-10-26T04:25:55.777Z,9.27
2022-10-26T04:28:22.230Z,9.27
2022-10-26T04:30:48.694Z,9.38
2022-10-26T04:33:15.126Z,9.39
2022-10-26T04:35:42.915Z,9.41
2022-10-26T04:38:10.098Z,9.55
2022-10-26T04:40:36.522Z,9.68
2022-10-26T04:43:02.974Z,9.68
2022-10-26T04:45:30.816Z,9.52
2022-10-26T04:48:01.364Z,9.69
2022-10-26T04:50:28.484Z,10.15
2022-10-26T04:52:55.330Z,9.53
2022-10-26T04:55:21.883Z,9.65
2022-10-26T04:57:48.553Z,9.78
2022-10-26T05:00:15.449Z,9.76
2022-10-26T05:02:41.896Z,10.12
2022-10-26T05:05:11.226Z,9.94
2022-10-26T05:07:40.799Z,9.48
2022-10-26T05:10:07.555Z,9.57
2022-10-26T05:12:34.017Z,9.56
2022-10-26T05:15:02.950Z,9.55
2022-10-26T05:17:31.673Z,9.66
2022-10-26T05:20:00.289Z,9.79
2022-10-26T05:22:26.875Z,9.97
2022-10-26T05:24:53.311Z,9.69
2022-10-26T05:27:19.813Z,9.76
2022-10-26T05:29:46.226Z,9.91
2022-10-26T05:32:12.654Z,9.88
2022-10-26T05:34:40.854Z,9.85
2022-10-26T05:37:08.067Z,10.04
2022-10-26T05:39:34.464Z,9.96
2022-10-26T05:42:00.894Z,9.80
2022-10-26T05:44:27.513Z,9.88
2022-10-26T05:46:53.972Z,10.06
2022-10-26T05:49:20.433Z,9.86
2022-10-26T05:51:46.880Z,9.97
2022-10-26T05:54:14.123Z,10.43
2022-10-26T05:56:41.293Z,10.34
2022-10-26T05:59:15.650Z,10.21
2022-10-26T06:01:45.152Z,10.16
2022-10-26T06:04:21.171Z,10.10
2022-10-26T06:06:51.612Z,10.02
2022-10-26T06:09:18.149Z,10.05
2022-10-26T06:11:44.764Z,10.11
2022-10-26T06:14:11.484Z,10.23
2022-10-26T06:16:52.905Z,10.23
2022-10-26T06:19:27.501Z,10.17
2022-10-26T06:22:07.794Z,10.28
2022-10-26T06:24:52.935Z,10.23
2022-10-26T06:27:22.340Z,10.24
2022-10-26T06:30:00.937Z,10.56
2022-10-26T06:32:27.834Z,10.83
2022-10-26T06:35:03.671Z,10.83
2022-10-26T06:37:33.930Z,11.12
2022-10-26T06:40:00.615Z,11.69
2022-10-26T06:42:27.110Z,10.91
2022-10-26T06:44:53.728Z,10.79
2022-10-26T06:47:40.467Z,10.93
2022-10-26T06:50:23.990Z,11.04
2022-10-26T06:53:08.927Z,11.10
2022-10-26T06:55:45.549Z,11.11
2022-10-26T06:58:15.785Z,11.31
2022-10-26T07:00:44.055Z,11.22
2022-10-26T07:03:10.745Z,11.33
2022-10-26T07:05:37.290Z,11.61
2022-10-26T07:08:04.660Z,11.61
2022-10-26T07:10:31.449Z,11.44
2022-10-26T07:12:58.051Z,11.63
2022-10-26T07:15:24.470Z,11.43
2022-10-26T07:17:51.284Z,11.36
2022-10-26T07:20:19.093Z,11.56
2022-10-26T07:22:45.620Z,11.64
2022-10-26T07:25:12.659Z,11.65
2022-10-26T07:27:39.398Z,11.89
2022-10-26T07:30:06.206Z,12.16
2022-10-26T07:32:33.032Z,11.90
2022-10-26T07:34:59.453Z,11.84
2022-10-26T07:37:25.882Z,11.92
2022-10-26T07:39:52.361Z,11.99
2022-10-26T07:42:18.815Z,11.77
2022-10-26T07:44:45.262Z,11.81
2022-10-26T07:47:11.736Z,11.55
2022-10-26T07:49:38.158Z,11.59
2022-10-26T07:52:04.761Z,12.02
2022-10-26T07:54:31.637Z,11.91
2022-10-26T07:56:58.192Z,12.09
2022-10-26T07:59:24.706Z,12.22
2022-10-26T08:01:51.200Z,12.38
2022-10-26T08:04:17.852Z,13.17
2022-10-26T08:06:44.406Z,12.87
2022-10-26T08:09:10.855Z,13.27
2022-10-26T08:11:37.305Z,13.02
2022-10-26T08:14:04.109Z,12.67
2022-10-26T08:16:31.330Z,12.93
2022-10-26T08:18:57.834Z,12.71
2022-10-26T08:21:36.303Z,12.68
2022-10-26T08:24:06.369Z,12.69
2022-10-26T08:26:32.890Z,12.83
2022-10-26T08:28:59.331Z,12.70
2022-10-26T08:31:25.842Z,12.85
2022-10-26T08:33:52.324Z,12.91
2022-10-26T08:36:22.901Z,13.00
2022-10-26T08:38:49.440Z,13.27
2022-10-26T08:41:15.926Z,13.23
2022-10-26T08:43:47.031Z,13.46
2022-10-26T08:46:19.310Z,13.60
2022-10-26T08:48:56.158Z,14.03
2022-10-26T08:51:25.603Z,14.35
2022-10-26T08:54:04.054Z,14.55
2022-10-26T08:56:50.834Z,14.34
2022-10-26T08:59:26.868Z,14.89
2022-10-26T09:01:54.006Z,15.01
2022-10-26T09:04:23.942Z,15.35
2022-10-26T09:07:15.546Z,15.39
2022-10-26T09:10:00.197Z,15.03
2022-10-26T09:12:32.005Z,15.13
2022-10-26T09:14:58.418Z,15.32
2022-10-26T09:17:34.089Z,14.99
2022-10-26T09:20:06.573Z,15.09
2022-10-26T09:22:32.982Z,14.94
2022-10-26T09:25:05.419Z,14.90
2022-10-26T09:27:40.218Z,15.01
2022-10-26T09:30:13.939Z,15.12
2022-10-26T09:32:44.525Z,15.24
2022-10-26T09:35:17.545Z,15.11
2022-10-26T09:37:47.255Z,15.53
2022-10-26T09:40:25.921Z,15.82
2022-10-26T09:43:05.552Z,16.67
2022-10-26T09:45:37.239Z,16.23
2022-10-26T09:48:27.030Z,15.54
2022-10-26T09:50:53.657Z,16.23
2022-10-26T09:53:20.074Z,16.21
2022-10-26T09:55:47.138Z,16.17
2022-10-26T09:58:20.220Z,16.65
2022-10-26T10:00:46.724Z,16.07
2022-10-26T10:03:26.273Z,16.66
2022-10-26T10:05:53.152Z,16.72
2022-10-26T10:08:23.970Z,17.30
2022-10-26T10:11:02.094Z,18.01
2022-10-26T10:13:33.008Z,18.24
2022-10-26T10:16:11.715Z,17.93
2022-10-26T10:18:39.686Z,19.00
2022-10-26T10:21:07.055Z,20.07
2022-10-26T10:23:34.710Z,19.76
2022-10-26T10:26:02.664Z,20.31
2022-10-26T10:28:29.403Z,19.83
2022-10-26T10:31:02.405Z,20.52
2022-10-26T10:33:33.820Z,20.96
2022-10-26T10:36:00.972Z,20.46
2022-10-26T10:38:27.442Z,19.98
2022-10-26T10:40:56.512Z,20.58
2022-10-26T10:43:22.979Z,20.20
2022-10-26T10:45:53.663Z,21.21
2022-10-26T10:48:26.608Z,19.55
2022-10-26T10:51:04.122Z,19.28
2022-10-26T10:53:30.540Z,19.96
2022-10-26T10:56:15.946Z,20.72
2022-10-26T10:58:42.347Z,21.04
2022-10-26T11:01:14.048Z,21.12
2022-10-26T11:03:47.548Z,21.55
2022-10-26T11:06:16.711Z,21.97
2022-10-26T11:08:50.438Z,21.57
2022-10-26T11:11:20.568Z,20.59
2022-10-26T11:14:04.817Z,21.51
2022-10-26T11:16:33.383Z,21.61
2022-10-26T11:19:07.381Z,21.00
2022-10-26T11:21:37.835Z,22.56
2022-10-26T11:24:12.870Z,21.69
2022-10-26T11:26:55.623Z,20.73
2022-10-26T11:29:28.082Z,20.96
2022-10-26T11:31:59.399Z,20.85
2022-10-26T11:34:52.394Z,20.71
2022-10-26T11:37:21.945Z,20.27
2022-10-26T11:40:07.329Z,20.60
2022-10-26T11:42:42.097Z,20.49
2022-10-26T11:45:24.867Z,20.12
2022-10-26T11:48:14.306Z,19.50
2022-10-26T11:50:43.098Z,20.42
2022-10-26T11:53:09.502Z,21.34
2022-10-26T11:55:35.979Z,21.80
2022-10-26T11:58:03.273Z,21.54
2022-10-26T12:00:29.894Z,21.18
2022-10-26T12:03:16.586Z,21.84
2022-10-26T12:05:52.719Z,21.94
2022-10-26T12:08:23.193Z,21.71
2022-10-26T12:10:54.193Z,21.08
2022-10-26T12:13:42.381Z,21.35
2022-10-26T12:16:26.018Z,21.05
2022-10-26T12:19:01.122Z,20.95
2022-10-26T12:21:29.093Z,21.20
2022-10-26T12:23:59.830Z,21.00
2022-10-26T12:26:26.312Z,20.52
2022-10-26T12:29:02.005Z,20.57
2022-10-26T12:31:37.890Z,20.74
2022-10-26T12:34:05.660Z,20.68
2022-10-26T12:37:28.793Z,20.61
2022-10-26T12:39:55.231Z,20.35
2022-10-26T12:42:24.445Z,21.02
2022-10-26T12:44:50.845Z,21.27
2022-10-26T12:47:32.597Z,20.56
2022-10-26T12:50:02.171Z,20.38
2022-10-26T12:52:28.636Z,20.71
2022-10-26T12:55:03.854Z,20.38
2022-10-26T12:57:36.619Z,20.18
2022-10-26T13:00:05.914Z,20.38
2022-10-26T13:02:47.743Z,20.46
2022-10-26T13:05:29.740Z,20.48
2022-10-26T13:08:10.145Z,20.42
2022-10-26T13:10:38.098Z,21.02
2022-10-26T13:13:06.241Z,20.34
2022-10-26T13:15:35.738Z,20.35
2022-10-26T13:18:22.566Z,20.10
2022-10-26T13:20:52.042Z,19.79
2022-10-26T13:23:26.705Z,19.76
2022-10-26T13:26:13.267Z,19.56
2022-10-26T13:28:39.755Z,19.79
2022-10-26T13:31:26.165Z,19.90
2022-10-26T13:33:56.182Z,19.59
2022-10-26T13:36:40.992Z,19.44
2022-10-26T13:39:15.037Z,19.07
2022-10-26T13:41:43.660Z,19.44
2022-10-26T13:44:25.207Z,19.54
2022-10-26T13:46:55.443Z,19.33
2022-10-26T13:49:25.126Z,19.11
2022-10-26T13:51:52.215Z,19.44
2022-10-26T13:54:25.683Z,19.19
2022-10-26T13:56:59.710Z,19.32
2022-10-26T13:59:26.879Z,19.13
2022-10-26T14:02:16.603Z,19.12
2022-10-26T14:04:45.295Z,19.47
2022-10-26T14:07:15.941Z,19.44
2022-10-26T14:09:43.051Z,19.44
2022-10-26T14:12:11.144Z,19.13
2022-10-26T14:14:38.441Z,19.44
2022-10-26T14:17:05.488Z,19.45
2022-10-26T14:19:36.589Z,19.36
2022-10-26T14:22:03.574Z,19.50
2022-10-26T14:24:48.181Z,19.64
2022-10-26T14:27:17.986Z,20.07
2022-10-26T14:29:49.915Z,20.47
2022-10-26T14:32:38.586Z,20.34
2022-10-26T14:35:05.269Z,20.57
2022-10-26T14:37:41.058Z,20.63
2022-10-26T14:40:13.965Z,20.51
2022-10-26T14:42:44.511Z,20.35
2022-10-26T14:45:29.504Z,20.43
2022-10-26T14:47:56.840Z,20.04
2022-10-26T14:50:24.315Z,20.09
2022-10-26T14:52:52.997Z,19.90
2022-10-26T14:55:19.919Z,19.61
2022-10-26T14:57:47.481Z,19.29
2022-10-26T15:00:15.687Z,19.33
2022-10-26T15:02:46.696Z,19.16
2022-10-26T15:05:16.026Z,18.99
2022-10-26T15:07:44.538Z,18.57
2022-10-26T15:10:29.827Z,18.07
2022-10-26T15:12:58.088Z,17.95
2022-10-26T15:15:25.976Z,17.78
2022-10-26T15:17:54.173Z,17.70
2022-10-26T15:20:25.461Z,17.36
2022-10-26T15:22:56.718Z,17.36
2022-10-26T15:25:24.816Z,17.60
2022-10-26T15:27:51.908Z,17.43
2022-10-26T15:30:21.068Z,16.95
2022-10-26T15:32:47.666Z,16.64
2022-10-26T15:35:20.094Z,16.60
2022-10-26T15:37:47.216Z,16.89
2022-10-26T15:40:13.812Z,16.87
2022-10-26T15:42:41.674Z,16.52
2022-10-26T15:45:25.798Z,16.54
2022-10-26T15:47:53.158Z,16.53
2022-10-26T15:50:21.438Z,16.54
2022-10-26T15:52:49.398Z,16.65
2022-10-26T15:55:16.854Z,16.51
2022-10-26T15:57:43.379Z,16.11
2022-10-26T16:00:15.034Z,16.04
2022-10-26T16:02:42.206Z,16.10
2022-10-26T16:05:08.774Z,16.11
2022-10-26T16:07:35.211Z,15.96
2022-10-26T16:10:01.629Z,15.81
2022-10-26T16:12:28.033Z,15.83
2022-10-26T16:15:05.185Z,15.82
2022-10-26T16:17:33.429Z,15.76
2022-10-26T16:20:02.281Z,15.74
2022-10-26T16:22:30.985Z,15.40
2022-10-26T16:24:59.146Z,15.31
2022-10-26T16:27:25.618Z,15.33
2022-10-26T16:29:52.029Z,15.36
2022-10-26T16:32:18.445Z,15.33
2022-10-26T16:34:44.851Z,15.15
2022-10-26T16:37:11.279Z,14.83
2022-10-26T16:39:37.691Z,14.99
2022-10-26T16:42:04.261Z,15.03
2022-10-26T16:44:30.667Z,14.94
2022-10-26T16:46:57.090Z,14.77
2022-10-26T16:49:23.498Z,14.82
2022-10-26T16:51:49.908Z,14.73
2022-10-26T16:54:16.400Z,14.66
2022-10-26T16:56:43.005Z,14.69
2022-10-26T16:59:10.430Z,14.59
2022-10-26T17:01:36.962Z,14.56
2022-10-26T17:06:35.150Z,14.43
2022-10-26T17:09:01.715Z,14.51
2022-10-26T17:11:28.138Z,14.54
2022-10-26T17:13:55.110Z,14.39
2022-10-26T17:16:22.401Z,14.46
2022-10-26T17:18:48.898Z,14.36
2022-10-26T17:21:16.741Z,14.28
2022-10-26T17:23:43.175Z,14.25
2022-10-26T17:26:10.728Z,14.22
2022-10-26T17:28:37.370Z,14.08
2022-10-26T17:31:10.975Z,13.98
2022-10-26T17:33:38.159Z,14.05
2022-10-26T17:36:05.438Z,13.93
2022-10-26T17:38:33.106Z,13.92
2022-10-26T17:41:00.254Z,13.83
2022-10-26T17:43:26.659Z,13.90
2022-10-26T17:45:57.639Z,13.88
2022-10-26T17:48:24.120Z,13.51
2022-10-26T17:50:51.611Z,13.22
2022-10-26T17:53:18.046Z,13.18
2022-10-26T17:55:44.441Z,13.34
2022-10-26T17:58:10.894Z,13.34
2022-10-26T18:00:37.350Z,13.38
2022-10-26T18:03:03.798Z,13.32
2022-10-26T18:05:31.741Z,13.21
2022-10-26T18:07:58.242Z,13.47
2022-10-26T18:10:37.569Z,13.47
2022-10-26T18:13:04.578Z,13.45
2022-10-26T18:15:31.040Z,13.52
2022-10-26T18:17:58.608Z,13.27
2022-10-26T18:20:27.157Z,13.30
2022-10-26T18:22:53.556Z,13.34
2022-10-26T18:25:19.970Z,13.37
2022-10-26T18:27:46.445Z,13.24
2022-10-26T18:30:13.039Z,13.38
2022-10-26T18:32:39.535Z,13.51
2022-10-26T18:35:06.081Z,13.61
2022-10-26T18:37:32.605Z,13.71
2022-10-26T18:39:59.057Z,13.81
2022-10-26T18:42:25.529Z,13.90
2022-10-26T18:44:52.031Z,13.73
2022-10-26T18:47:18.470Z,13.78
2022-10-26T18:49:44.894Z,13.77
2022-10-26T18:52:11.547Z,13.84
2022-10-26T18:54:38.028Z,13.87
2022-10-26T18:57:04.426Z,13.86
2022-10-26T18:59:30.891Z,13.92
2022-10-26T19:01:57.443Z,13.89
2022-10-26T19:04:24.050Z,13.84
2022-10-26T19:06:50.674Z,13.87
2022-10-26T19:09:18.420Z,13.85
2022-10-26T19:11:44.951Z,13.82
2022-10-26T19:14:11.636Z,13.94
2022-10-26T19:16:47.604Z,14.03
2022-10-26T19:19:15.648Z,13.91
2022-10-26T19:21:42.161Z,13.84
2022-10-26T19:24:16.293Z,13.93
2022-10-26T19:26:44.056Z,13.82
2022-10-26T19:29:15.308Z,13.95
2022-10-26T19:31:42.719Z,13.94
2022-10-26T19:34:10.074Z,13.85
2022-10-26T19:36:36.709Z,13.91
2022-10-26T19:39:03.527Z,13.89
2022-10-26T19:41:31.236Z,13.89
2022-10-26T19:46:30.952Z,13.84
2022-10-26T19:48:58.676Z,13.96
2022-10-26T19:51:25.957Z,14.04
2022-10-26T19:53:52.644Z,14.09
2022-10-26T19:56:20.550Z,13.97
2022-10-26T19:58:47.558Z,13.93
2022-10-26T20:01:15.036Z,13.83
2022-10-26T20:03:41.884Z,13.74
2022-10-26T20:06:12.725Z,13.58
2022-10-26T20:08:43.394Z,13.55
2022-10-26T20:11:14.639Z,13.70
2022-10-26T20:13:43.086Z,13.69
2022-10-26T20:16:09.560Z,13.60
2022-10-26T20:18:36.307Z,13.75
2022-10-26T20:21:06.469Z,13.52
2022-10-26T20:23:32.914Z,13.43
2022-10-26T20:26:00.398Z,13.44
2022-10-26T20:28:27.170Z,13.48
2022-10-26T20:30:53.620Z,13.56
2022-10-26T20:33:20.244Z,13.42
2022-10-26T20:35:46.846Z,13.32
2022-10-26T20:38:19.809Z,13.40
2022-10-26T20:40:51.613Z,13.32
2022-10-26T20:43:18.758Z,13.20
2022-10-26T20:45:45.430Z,13.15
2022-10-26T20:48:12.433Z,13.23
2022-10-26T20:50:40.195Z,13.33
2022-10-26T20:53:25.269Z,13.34
2022-10-26T20:55:56.795Z,13.24
2022-10-26T20:58:26.273Z,13.03
2022-10-26T21:00:59.106Z,13.07
2022-10-26T21:03:25.598Z,13.12
2022-10-26T21:05:52.277Z,13.18
2022-10-26T21:08:18.989Z,13.07
2022-10-26T21:10:45.435Z,13.10
2022-10-26T21:13:12.609Z,13.05
2022-10-26T21:15:39.038Z,12.99
2022-10-26T21:18:05.829Z,13.08
2022-10-26T21:20:32.909Z,12.98
2022-10-26T21:22:59.314Z,12.85
2022-10-26T21:25:25.725Z,12.74
2022-10-26T21:27:56.001Z,12.66
2022-10-26T21:30:22.866Z,12.66
2022-10-26T21:32:49.407Z,12.71
2022-10-26T21:35:15.906Z,12.73
2022-10-26T21:37:42.355Z,12.74
2022-10-26T21:40:09.210Z,12.85
2022-10-26T21:42:35.674Z,12.80
2022-10-26T21:45:02.118Z,12.87
2022-10-26T21:47:28.528Z,12.73
2022-10-26T21:49:54.982Z,12.50
2022-10-26T21:52:21.391Z,12.64
2022-10-26T21:54:47.959Z,12.60
2022-10-26T21:57:15.349Z,12.54
2022-10-26T21:59:41.914Z,12.35
2022-10-26T22:02:08.429Z,12.27
2022-10-26T22:04:34.957Z,12.19
2022-10-26T22:07:01.396Z,12.18
2022-10-26T22:09:27.829Z,11.91
2022-10-26T22:11:54.249Z,12.18
2022-10-26T22:14:21.010Z,12.39
2022-10-26T22:16:47.463Z,12.33
2022-10-26T22:19:13.886Z,12.40
2022-10-26T22:21:41.218Z,12.80
2022-10-26T22:24:08.000Z,13.10
2022-10-26T22:26:35.474Z,12.87
2022-10-26T22:29:02.198Z,12.56
2022-10-26T22:34:02.034Z,12.45
2022-10-26T22:36:31.843Z,12.41
2022-10-26T22:38:58.320Z,12.08
2022-10-26T22:41:24.810Z,12.09
2022-10-26T22:43:51.296Z,12.11
2022-10-26T22:46:19.142Z,12.23
2022-10-26T22:48:45.779Z,12.15
2022-10-26T22:51:16.516Z,12.07
2022-10-26T22:53:43.387Z,12.08
2022-10-26T22:56:11.101Z,11.96
2022-10-26T22:58:37.799Z,12.10
2022-10-26T23:01:05.894Z,12.11
2022-10-26T23:03:32.729Z,12.10
2022-10-26T23:05:59.621Z,12.00
2022-10-26T23:08:26.272Z,11.95
2022-10-26T23:10:52.860Z,11.97
2022-10-26T23:13:19.302Z,11.96
2022-10-26T23:15:45.809Z,11.86
2022-10-26T23:18:12.248Z,11.83
2022-10-26T23:20:38.751Z,11.62
2022-10-26T23:23:05.199Z,11.51
2022-10-26T23:25:31.639Z,11.54
2022-10-26T23:27:58.120Z,11.60
2022-10-26T23:30:24.595Z,11.46
2022-10-26T23:32:51.193Z,11.34
2022-10-26T23:35:17.888Z,11.30
2022-10-26T23:37:44.297Z,11.26
2022-10-26T23:40:10.990Z,11.19
2022-10-26T23:42:37.465Z,11.39
2022-10-26T23:45:04.025Z,11.40
2022-10-26T23:47:30.445Z,11.16
2022-10-26T23:49:56.910Z,11.05
2022-10-26T23:52:23.387Z,11.04
2022-10-26T23:57:16.153Z,11.32
2022-10-26T23:59:42.745Z,11.15
